createdAt,value
2023-11-24T00:04:39.756Z,2.23
2023-11-24T00:09:32.857Z,3.23
2023-11-24T00:14:26.086Z,2.70
2023-11-24T00:19:18.122Z,2.60
2023-11-24T00:24:10.371Z,2.83
2023-11-24T00:29:02.964Z,2.93
2023-11-24T00:33:55.551Z,3.77
2023-11-24T00:38:47.597Z,3.33
2023-11-24T00:43:40.456Z,3.20
2023-11-24T00:48:33.013Z,3.80
2023-11-24T00:53:30.750Z,3.73
2023-11-24T00:58:22.779Z,3.70
2023-11-24T01:03:18.037Z,2.80
2023-11-24T01:08:10.230Z,3.40
2023-11-24T01:13:04.058Z,3.47
2023-11-24T01:18:00.494Z,3.17
2023-11-24T01:22:53.213Z,3.27
2023-11-24T01:27:47.006Z,3.50
2023-11-24T01:32:40.124Z,3.53
2023-11-24T01:37:32.643Z,3.50
2023-11-24T01:42:24.945Z,3.73
2023-11-24T01:47:17.710Z,3.47
2023-11-24T01:52:10.051Z,3.63
2023-11-24T01:57:03.636Z,3.07
2023-11-24T02:01:58.727Z,3.80
2023-11-24T02:06:52.498Z,3.00
2023-11-24T02:11:46.718Z,2.30
2023-11-24T02:16:39.382Z,2.93
2023-11-24T02:21:31.468Z,2.97
2023-11-24T02:26:26.495Z,3.33
2023-11-24T02:31:18.487Z,2.97
2023-11-24T02:36:22.666Z,3.77
2023-11-24T02:41:18.105Z,2.73
2023-11-24T02:46:17.663Z,3.00
2023-11-24T02:51:10.904Z,2.67
2023-11-24T02:56:05.473Z,3.17
2023-11-24T03:00:58.674Z,3.90
2023-11-24T03:05:55.623Z,2.80
2023-11-24T03:10:50.104Z,3.40
2023-11-24T03:15:43.142Z,3.87
2023-11-24T03:20:37.409Z,3.63
2023-11-24T03:25:30.876Z,3.60
2023-11-24T03:30:25.247Z,3.03
2023-11-24T03:35:18.741Z,2.97
2023-11-24T03:40:11.971Z,2.73
2023-11-24T03:45:04.347Z,2.73
2023-11-24T03:49:56.882Z,2.60
2023-11-24T03:54:49.163Z,2.57
2023-11-24T03:59:41.216Z,3.20
2023-11-24T04:04:35.505Z,2.30
2023-11-24T04:09:27.736Z,2.63
2023-11-24T04:14:20.240Z,2.70
2023-11-24T04:19:12.581Z,3.13
2023-11-24T04:24:04.930Z,2.20
2023-11-24T04:28:58.659Z,2.20
2023-11-24T04:33:53.648Z,1.80
2023-11-24T04:38:46.776Z,1.90
2023-11-24T04:43:40.808Z,1.93
2023-11-24T04:48:33.041Z,2.10
2023-11-24T04:53:25.270Z,1.80
2023-11-24T04:58:17.282Z,2.30
2023-11-24T05:03:09.514Z,2.20
2023-11-24T05:08:01.493Z,2.00
2023-11-24T05:12:54.957Z,1.93
2023-11-24T05:17:47.378Z,1.90
2023-11-24T05:22:41.391Z,2.13
2023-11-24T05:27:33.352Z,2.13
2023-11-24T05:32:26.257Z,2.00
2023-11-24T05:37:19.260Z,1.73
2023-11-24T05:42:12.988Z,1.60
2023-11-24T05:47:06.343Z,1.80
2023-11-24T05:51:59.393Z,1.90
2023-11-24T05:56:51.574Z,1.73
2023-11-24T06:01:51.031Z,1.90
2023-11-24T06:06:43.167Z,1.93
2023-11-24T06:11:38.071Z,2.20
2023-11-24T06:16:29.994Z,2.63
2023-11-24T06:21:22.120Z,2.20
2023-11-24T06:26:14.325Z,2.27
2023-11-24T06:31:11.467Z,1.70
2023-11-24T06:36:05.498Z,1.70
2023-11-24T06:40:59.465Z,1.90
2023-11-24T06:45:53.578Z,2.50
2023-11-24T06:50:46.250Z,2.40
2023-11-24T06:55:38.882Z,2.30
2023-11-24T07:00:31.686Z,2.13
2023-11-24T07:05:25.094Z,2.00
2023-11-24T07:10:20.900Z,2.37
2023-11-24T07:15:13.281Z,2.37
2023-11-24T07:20:12.989Z,2.50
2023-11-24T07:25:05.695Z,2.63
2023-11-24T07:29:58.312Z,1.90
2023-11-24T07:34:53.459Z,2.30
2023-11-24T07:39:46.574Z,2.93
2023-11-24T07:44:39.074Z,3.07
2023-11-24T07:49:32.014Z,3.00
2023-11-24T07:54:27.756Z,2.90
2023-11-24T07:59:22.188Z,3.40
2023-11-24T08:04:15.444Z,3.53
2023-11-24T08:09:09.941Z,2.33
2023-11-24T08:14:04.883Z,2.10
2023-11-24T08:18:59.391Z,1.90
2023-11-24T08:23:51.794Z,1.60
2023-11-24T08:28:45.478Z,1.13
2023-11-24T08:33:39.892Z,2.33
2023-11-24T08:38:36.390Z,3.67
2023-11-24T08:43:30.793Z,2.37
2023-11-24T08:48:24.796Z,1.23
2023-11-24T08:53:17.236Z,1.50
2023-11-24T09:03:20.310Z,1.30
2023-11-24T09:08:20.473Z,1.97
2023-11-24T09:23:29.882Z,2.07
2023-11-24T09:43:53.517Z,1.60
2023-11-24T09:53:57.320Z,2.40
2023-11-24T10:04:04.357Z,2.20
2023-11-24T10:09:07.297Z,1.90
2023-11-24T10:14:00.593Z,1.80
2023-11-24T10:24:08.114Z,1.80
2023-11-24T10:34:15.089Z,2.10
2023-11-24T10:39:15.037Z,2.03
2023-11-24T10:49:43.836Z,1.40
2023-11-24T10:54:41.784Z,1.77
2023-11-24T10:59:40.253Z,1.43
2023-11-24T11:04:42.554Z,0.90
2023-11-24T11:09:50.335Z,0.87
2023-11-24T11:20:05.148Z,1.90
2023-11-24T11:25:35.129Z,1.50
2023-11-24T11:30:30.800Z,1.80
2023-11-24T11:35:30.134Z,1.40
2023-11-24T11:40:25.442Z,2.10
2023-11-24T11:45:31.697Z,1.43
2023-11-24T11:50:27.306Z,1.70
2023-11-24T11:55:25.119Z,1.20
2023-11-24T12:00:18.214Z,1.40
2023-11-24T12:05:16.279Z,1.40
2023-11-24T12:10:12.989Z,1.70
2023-11-24T12:15:09.445Z,1.10
2023-11-24T12:32:20.172Z,0.93
2023-11-24T12:37:13.795Z,1.20
2023-11-24T12:42:08.701Z,1.10
2023-11-24T12:47:13.145Z,0.90
2023-11-24T12:52:06.818Z,1.37
2023-11-24T12:57:02.576Z,1.27
2023-11-24T13:02:00.344Z,1.43
2023-11-24T13:06:54.319Z,1.47
2023-11-24T13:11:48.128Z,1.60
2023-11-24T13:16:42.379Z,1.43
2023-11-24T13:21:35.432Z,1.67
2023-11-24T13:26:29.400Z,1.77
2023-11-24T13:31:23.291Z,2.07
2023-11-24T13:36:18.437Z,3.40
2023-11-24T13:41:13.718Z,2.80
2023-11-24T13:46:07.838Z,3.43
2023-11-24T13:51:04.711Z,1.73
2023-11-24T13:55:58.940Z,2.40
2023-11-24T14:00:57.476Z,2.03
2023-11-24T14:12:08.332Z,2.73
2023-11-24T14:17:03.756Z,2.60
2023-11-24T14:22:00.464Z,2.13
2023-11-24T14:26:55.849Z,3.00
2023-11-24T14:31:51.812Z,3.43
2023-11-24T14:36:46.584Z,3.63
2023-11-24T14:41:40.346Z,3.87
2023-11-24T14:46:40.786Z,3.83
2023-11-24T14:51:37.366Z,2.90
2023-11-24T14:56:32.312Z,2.60
2023-11-24T15:01:29.386Z,2.47
2023-11-24T15:06:26.748Z,2.27
2023-11-24T15:11:22.285Z,2.40
2023-11-24T16:36:02.010Z,1.60
2023-11-24T16:46:34.932Z,1.87
2023-11-24T16:51:35.469Z,1.10
2023-11-24T19:03:52.180Z,2.70
2023-11-24T19:32:43.437Z,2.00
2023-11-24T19:44:21.127Z,2.20
2023-11-24T20:05:57.235Z,2.50
2023-11-24T20:11:14.777Z,3.07
